Time;durP1;ratioP1;P1;durP2;ratioP2;P2;SDS_P1;SDS_P2;PMS_P1;PMS_P2;Temp;Humidity;BMP_temperature;BMP_pressure;BME280_temperature;BME280_humidity;BME280_pressure;Samples;Min_cycle;Max_cycle;Signal;HPM_P1;HPM_P2
2021/11/13 00:01:00;;;;;;;8.58;7.55;;;;;;;13.49;47.00;100523.84;1776699;79;21277;-65
2021/11/13 00:03:27;;;;;;;9.00;7.72;;;;;;;13.49;47.01;100525.17;1792705;79;21910;-66
2021/11/13 00:05:53;;;;;;;8.40;7.50;;;;;;;13.47;47.02;100520.00;1775546;80;21945;-65
2021/11/13 00:08:20;;;;;;;9.98;7.70;;;;;;;13.47;47.03;100516.00;1748381;80;21149;-66
2021/11/13 00:10:47;;;;;;;8.23;7.42;;;;;;;13.46;47.03;100518.35;1815361;77;20990;-65
2021/11/13 00:13:14;;;;;;;8.45;7.42;;;;;;;13.47;47.02;100516.50;1830581;77;21716;-65
2021/11/13 00:15:41;;;;;;;8.78;7.58;;;;;;;13.46;47.05;100523.69;1838099;77;21474;-65
2021/11/13 00:18:09;;;;;;;7.97;6.97;;;;;;;13.45;47.05;100523.34;1813425;77;21028;-64
2021/11/13 00:20:36;;;;;;;8.25;7.10;;;;;;;13.44;47.03;100524.33;1820713;77;20986;-64
2021/11/13 00:23:02;;;;;;;7.95;7.08;;;;;;;13.45;47.05;100530.52;1842558;77;20974;-64
2021/11/13 00:25:29;;;;;;;8.68;7.30;;;;;;;13.43;47.05;100529.34;1842641;77;21068;-65
2021/11/13 00:27:55;;;;;;;8.88;7.28;;;;;;;13.44;47.06;100531.52;1786486;79;21045;-65
2021/11/13 00:30:21;;;;;;;8.30;7.05;;;;;;;13.43;47.05;100535.20;1797022;79;21041;-66
2021/11/13 00:32:48;;;;;;;8.80;7.20;;;;;;;13.42;47.08;100538.34;1796370;79;21065;-65
2021/11/13 00:35:15;;;;;;;9.28;7.67;;;;;;;13.42;47.05;100545.02;1745984;80;21089;-65
2021/11/13 00:37:41;;;;;;;8.75;7.17;;;;;;;13.42;47.07;100542.86;1776558;79;21046;-64
2021/11/13 00:40:09;;;;;;;9.60;8.03;;;;;;;13.41;47.07;100538.02;1780668;79;21087;-65
2021/11/13 00:42:35;;;;;;;8.23;7.22;;;;;;;13.42;47.07;100534.84;1771291;80;21109;-65
2021/11/13 00:45:02;;;;;;;8.20;7.22;;;;;;;13.41;47.08;100533.20;1748648;80;21096;-65
2021/11/13 00:47:31;;;;;;;9.70;7.60;;;;;;;13.40;47.07;100537.68;1778235;78;21015;-64
2021/11/13 00:49:57;;;;;;;7.97;7.17;;;;;;;13.40;47.11;100540.86;1787334;79;21089;-64
2021/11/13 00:52:24;;;;;;;7.97;7.17;;;;;;;13.39;47.08;100541.36;1773746;80;21819;-65
2021/11/13 00:54:50;;;;;;;7.92;7.12;;;;;;;13.39;47.11;100541.87;1773417;80;21466;-64
2021/11/13 00:57:16;;;;;;;8.70;7.45;;;;;;;13.37;47.09;100538.86;1776038;80;21033;-65
2021/11/13 00:59:44;;;;;;;8.33;6.70;;;;;;;13.37;47.12;100534.85;1772563;80;21068;-63
2021/11/13 01:02:11;;;;;;;8.25;7.37;;;;;;;13.37;47.12;100539.36;1761368;81;21053;-64
2021/11/13 01:04:37;;;;;;;7.42;6.42;;;;;;;13.37;47.10;100538.03;1765299;81;21110;-65
2021/11/13 01:07:05;;;;;;;8.33;7.30;;;;;;;13.36;47.13;100541.17;1751263;81;21036;-64
2021/11/13 01:09:31;;;;;;;8.13;7.33;;;;;;;13.36;47.10;100543.84;1765653;80;21044;-64
2021/11/13 01:12:00;;;;;;;8.30;7.12;;;;;;;13.35;47.15;100548.87;1763798;81;21036;-64
2021/11/13 01:14:27;;;;;;;8.65;7.30;;;;;;;13.34;47.15;100547.18;1754812;80;21021;-65
2021/11/13 01:16:55;;;;;;;7.53;6.83;;;;;;;13.34;47.15;100535.69;1758376;81;21101;-65
2021/11/13 01:19:22;;;;;;;8.35;7.55;;;;;;;13.33;47.15;100536.19;1755027;81;21072;-65
2021/11/13 01:21:48;;;;;;;9.20;7.72;;;;;;;13.34;47.16;100537.02;1755956;81;21175;-65
2021/11/13 01:24:16;;;;;;;8.13;7.17;;;;;;;13.34;47.12;100547.69;1763114;81;21097;-64
2021/11/13 01:26:43;;;;;;;7.90;7.05;;;;;;;13.33;47.15;100548.20;1746471;81;21049;-65
2021/11/13 01:29:10;;;;;;;8.40;7.47;;;;;;;13.32;47.17;100545.18;1767802;80;21143;-64
2021/11/13 01:31:37;;;;;;;7.70;7.00;;;;;;;13.33;47.15;100543.38;1812251;78;20988;-65
2021/11/13 01:34:04;;;;;;;7.97;7.17;;;;;;;13.31;47.17;100539.53;1815898;78;21005;-65
2021/11/13 01:36:32;;;;;;;8.78;7.87;;;;;;;13.31;47.16;100547.53;1816390;78;21072;-65
2021/11/13 01:38:59;;;;;;;8.15;7.17;;;;;;;13.30;47.17;100547.69;1803576;78;21118;-65
2021/11/13 01:41:25;;;;;;;8.98;7.47;;;;;;;13.30;47.19;100545.02;1807406;78;21107;-66
2021/11/13 01:43:53;;;;;;;8.63;7.67;;;;;;;13.28;47.18;100547.00;1819228;78;21029;-65
2021/11/13 01:46:20;;;;;;;9.23;7.42;;;;;;;13.29;47.18;100547.31;1793904;78;21538;-66
2021/11/13 01:48:46;;;;;;;8.45;7.03;;;;;;;13.28;47.18;100549.66;1810062;77;21549;-65
2021/11/13 01:51:24;;;;;;;8.48;7.47;;;;;;;13.27;47.17;100548.84;1818766;78;21020;-65
2021/11/13 01:53:54;;;;;;;7.67;6.90;;;;;;;13.28;47.20;100548.33;1819666;78;21090;-66
2021/11/13 01:56:21;;;;;;;7.75;6.90;;;;;;;13.26;47.20;100551.16;1817180;78;21876;-65
2021/11/13 01:58:53;;;;;;;8.95;7.83;;;;;;;13.26;47.19;100555.16;1818730;77;21099;-64
2021/11/13 02:01:21;;;;;;;8.23;7.28;;;;;;;13.25;47.20;100556.17;1829341;78;21002;-65
2021/11/13 02:03:49;;;;;;;8.85;7.95;;;;;;;13.25;47.21;100557.98;1746833;81;21009;-65
2021/11/13 02:06:17;;;;;;;7.97;7.10;;;;;;;13.24;47.22;100563.00;1824708;78;21113;-65
2021/11/13 02:08:44;;;;;;;8.78;7.75;;;;;;;13.23;47.23;100566.18;1741703;81;20998;-64
2021/11/13 02:11:12;;;;;;;8.48;7.15;;;;;;;13.22;47.23;100567.16;1829739;78;21199;-64
2021/11/13 02:13:39;;;;;;;7.85;7.05;;;;;;;13.22;47.24;100563.67;1831846;77;21261;-64
2021/11/13 02:16:08;;;;;;;8.98;8.08;;;;;;;13.21;47.25;100566.81;1824434;78;21574;-66
2021/11/13 02:18:37;;;;;;;9.43;7.45;;;;;;;13.20;47.25;100563.00;1827871;78;21857;-64
2021/11/13 02:21:04;;;;;;;9.03;7.90;;;;;;;13.21;47.26;100564.66;1820432;78;21061;-65
2021/11/13 02:23:31;;;;;;;9.45;7.87;;;;;;;13.20;47.26;100561.67;1814859;78;21069;-64
2021/11/13 02:25:57;;;;;;;8.68;7.30;;;;;;;13.19;47.28;100556.81;1750824;81;21064;-64
2021/11/13 02:28:26;;;;;;;9.35;8.15;;;;;;;13.17;47.28;100555.67;1830905;78;20979;-64
2021/11/13 02:30:55;;;;;;;8.90;7.75;;;;;;;13.17;47.29;100558.34;1746019;81;21103;-65
2021/11/13 02:33:25;;;;;;;9.45;7.58;;;;;;;13.16;47.29;100557.98;1831105;78;21015;-64
2021/11/13 02:35:55;;;;;;;8.50;7.62;;;;;;;13.16;47.28;100564.66;1829874;78;21041;-65
2021/11/13 02:38:25;;;;;;;8.85;7.20;;;;;;;13.14;47.30;100565.33;1827118;78;21093;-64
2021/11/13 02:40:56;;;;;;;8.93;7.80;;;;;;;13.15;47.28;100567.00;1830467;78;21451;-64
2021/11/13 02:43:25;;;;;;;9.70;7.90;;;;;;;13.15;47.30;100565.67;1813846;78;21525;-64
2021/11/13 02:45:54;;;;;;;8.53;7.62;;;;;;;13.14;47.31;100563.98;1834835;78;21018;-65
2021/11/13 02:48:21;;;;;;;8.70;7.62;;;;;;;13.14;47.33;100567.16;1828402;78;20990;-64
2021/11/13 02:50:49;;;;;;;10.18;8.08;;;;;;;13.13;47.33;100573.48;1789034;78;21073;-65
2021/11/13 02:53:20;;;;;;;9.13;8.03;;;;;;;13.12;47.33;100571.33;1814536;78;21002;-64
2021/11/13 02:55:49;;;;;;;8.55;7.40;;;;;;;13.12;47.33;100569.99;1817645;78;21018;-65
2021/11/13 02:58:17;;;;;;;8.63;7.47;;;;;;;13.11;47.34;100562.97;1820182;78;21070;-65
2021/11/13 03:00:44;;;;;;;8.70;7.28;;;;;;;13.10;47.35;100569.32;1827760;77;20999;-64
2021/11/13 03:03:18;;;;;;;9.40;7.25;;;;;;;13.09;47.35;100572.97;1768841;80;21084;-65
2021/11/13 03:05:56;;;;;;;9.75;7.80;;;;;;;13.09;47.35;100578.31;1775363;79;21541;-65
2021/11/13 03:08:29;;;;;;;8.68;7.65;;;;;;;13.09;47.35;100586.31;1769264;80;21170;-64
2021/11/13 03:10:58;;;;;;;9.03;7.75;;;;;;;13.08;47.36;100583.33;1830513;77;21541;-65
2021/11/13 03:13:26;;;;;;;10.63;8.18;;;;;;;13.07;47.38;100578.15;1773351;80;20999;-65
2021/11/13 03:15:56;;;;;;;9.23;8.15;;;;;;;13.07;47.38;100584.81;1776264;80;21073;-64
2021/11/13 03:18:23;;;;;;;8.40;7.58;;;;;;;13.06;47.39;100586.66;1772655;79;21617;-63
2021/11/13 03:20:50;;;;;;;8.60;7.70;;;;;;;13.06;47.42;100591.99;1773356;80;22352;-64
2021/11/13 03:23:17;;;;;;;9.53;8.05;;;;;;;13.05;47.40;100596.98;1762848;80;21007;-64
2021/11/13 03:25:57;;;;;;;9.13;8.13;;;;;;;13.05;47.40;100598.81;1780647;79;21016;-63
2021/11/13 03:28:25;;;;;;;8.63;7.37;;;;;;;13.04;47.41;100593.99;1791708;79;21013;-64
2021/11/13 03:30:51;;;;;;;8.50;7.60;;;;;;;13.03;47.41;100604.31;1811920;77;21057;-64
2021/11/13 03:33:18;;;;;;;8.90;7.15;;;;;;;13.02;47.42;100611.99;1830196;77;21045;-64
2021/11/13 03:35:45;;;;;;;8.58;7.10;;;;;;;13.02;47.43;100599.13;1834494;77;21013;-64
2021/11/13 03:38:14;;;;;;;10.15;7.90;;;;;;;13.02;47.43;100600.47;1832299;77;21024;-64
2021/11/13 03:40:44;;;;;;;9.40;8.20;;;;;;;13.01;47.45;100600.97;1836809;77;21521;-64
2021/11/13 03:43:10;;;;;;;10.08;8.10;;;;;;;13.02;47.46;100604.47;1832693;77;20990;-64
2021/11/13 03:45:37;;;;;;;10.20;8.28;;;;;;;13.01;47.44;100600.97;1772945;80;21303;-65
2021/11/13 03:48:04;;;;;;;9.85;7.87;;;;;;;13.00;47.45;100600.66;1747933;80;21049;-64
2021/11/13 03:50:31;;;;;;;9.55;7.83;;;;;;;12.99;47.46;100599.80;1759314;80;21041;-64
2021/11/13 03:52:57;;;;;;;9.10;7.70;;;;;;;12.99;47.45;100597.13;1762548;80;21047;-64
2021/11/13 03:55:24;;;;;;;8.63;7.72;;;;;;;12.99;47.45;100591.80;1751340;80;21007;-63
2021/11/13 03:57:51;;;;;;;9.15;7.67;;;;;;;12.99;47.47;100602.97;1765414;80;21057;-64
2021/11/13 04:00:17;;;;;;;8.50;7.60;;;;;;;12.97;47.46;100591.62;1760613;80;21031;-63
2021/11/13 04:02:47;;;;;;;10.18;8.15;;;;;;;12.98;47.46;100597.31;1778771;79;21076;-65
2021/11/13 04:05:15;;;;;;;8.85;7.53;;;;;;;12.98;47.46;100597.31;1791105;79;21096;-64
2021/11/13 04:07:41;;;;;;;10.68;8.40;;;;;;;12.97;47.46;100592.96;1763050;80;21593;-63
2021/11/13 04:10:10;;;;;;;9.58;8.25;;;;;;;12.97;47.46;100598.30;1767445;80;21141;-64
2021/11/13 04:12:37;;;;;;;10.00;9.00;;;;;;;12.96;47.46;100601.95;1765266;80;21513;-63
2021/11/13 04:15:05;;;;;;;9.05;7.80;;;;;;;12.96;47.48;100596.61;1756712;80;21038;-63
2021/11/13 04:17:33;;;;;;;8.95;7.28;;;;;;;12.95;47.49;100601.62;1765983;80;21550;-64
2021/11/13 04:20:00;;;;;;;9.00;7.37;;;;;;;12.94;47.48;100603.95;1844556;77;21052;-65
2021/11/13 04:22:28;;;;;;;9.05;7.87;;;;;;;12.93;47.49;100600.95;1827754;77;21062;-64
2021/11/13 04:24:55;;;;;;;9.45;7.50;;;;;;;12.93;47.50;100605.78;1826329;77;21021;-64
2021/11/13 04:27:21;;;;;;;9.93;8.13;;;;;;;12.93;47.49;100604.95;1779244;80;21058;-64
2021/11/13 04:29:48;;;;;;;9.20;8.20;;;;;;;12.93;47.49;100611.62;1773768;80;20999;-64
2021/11/13 04:32:15;;;;;;;9.30;8.20;;;;;;;12.92;47.49;100606.80;1786095;79;21063;-63
2021/11/13 04:34:51;;;;;;;9.15;8.05;;;;;;;12.91;47.49;100609.63;1789792;79;21087;-64
2021/11/13 04:37:18;;;;;;;8.68;7.53;;;;;;;12.91;47.49;100610.45;1771669;80;21045;-64
2021/11/13 04:39:40;;;;;;;8.63;7.72;;;;;;;12.90;47.50;100610.13;1762239;80;21574;-64
2021/11/13 04:42:07;;;;;;;9.20;8.25;;;;;;;12.89;47.51;100608.45;1766534;80;21613;-64
2021/11/13 04:44:33;;;;;;;10.20;8.63;;;;;;;12.89;47.51;100611.11;1761933;80;21018;-64
2021/11/13 04:47:03;;;;;;;9.68;8.65;;;;;;;12.90;47.50;100621.27;1776245;80;21116;-64
2021/11/13 04:49:31;;;;;;;9.30;8.23;;;;;;;12.89;47.51;100624.95;1775217;80;21043;-64
2021/11/13 04:52:00;;;;;;;10.80;8.83;;;;;;;12.88;47.52;100623.27;1778878;79;21062;-64
2021/11/13 04:54:28;;;;;;;9.28;7.50;;;;;;;12.88;47.52;100628.59;1787850;79;21038;-64
2021/11/13 04:56:54;;;;;;;9.23;8.13;;;;;;;12.87;47.53;100635.77;1777932;79;20998;-63
2021/11/13 04:59:21;;;;;;;9.93;8.58;;;;;;;12.86;47.55;100636.75;1804700;79;21127;-64
2021/11/13 05:01:47;;;;;;;9.33;8.38;;;;;;;12.86;47.55;100636.75;1772054;79;21693;-64
2021/11/13 05:04:14;;;;;;;8.90;8.00;;;;;;;12.86;47.55;100639.42;1783628;79;21085;-63
2021/11/13 05:06:40;;;;;;;8.83;7.75;;;;;;;12.85;47.53;100639.61;1792182;79;21071;-63
2021/11/13 05:09:06;;;;;;;8.38;7.22;;;;;;;12.84;47.56;100641.41;1782805;79;21012;-64
2021/11/13 05:11:32;;;;;;;8.68;7.78;;;;;;;12.84;47.55;100643.25;1804609;79;21205;-63
2021/11/13 05:13:59;;;;;;;8.95;8.05;;;;;;;12.84;47.55;100645.92;1819342;77;21077;-63
2021/11/13 05:16:26;;;;;;;9.33;7.83;;;;;;;12.83;47.57;100648.27;1821790;77;21069;-64
2021/11/13 05:18:53;;;;;;;9.55;8.05;;;;;;;12.83;47.56;100650.94;1831737;77;21063;-65
2021/11/13 05:21:20;;;;;;;9.38;8.40;;;;;;;12.82;47.58;100653.25;1830149;77;21002;-63
2021/11/13 05:23:46;;;;;;;8.65;7.60;;;;;;;12.82;47.57;100659.41;1835658;77;21094;-64
2021/11/13 05:26:13;;;;;;;8.53;7.60;;;;;;;12.81;47.57;100661.75;1825069;77;21029;-64
2021/11/13 05:28:43;;;;;;;10.82;9.03;;;;;;;12.81;47.58;100668.92;1775231;80;21088;-64
2021/11/13 05:31:07;;;;;;;9.30;8.30;;;;;;;12.80;47.59;100668.06;1774158;79;21038;-64
2021/11/13 05:33:35;;;;;;;8.85;7.58;;;;;;;12.79;47.59;100669.91;1841108;77;20989;-63
2021/11/13 05:36:01;;;;;;;9.30;8.30;;;;;;;12.79;47.59;100677.91;1825946;77;21380;-64
2021/11/13 05:38:28;;;;;;;8.75;7.85;;;;;;;12.79;47.58;100680.57;1832212;77;21045;-64
2021/11/13 05:40:54;;;;;;;11.43;8.95;;;;;;;12.79;47.59;100683.23;1839433;77;21100;-65
2021/11/13 05:43:21;;;;;;;9.83;8.83;;;;;;;12.79;47.59;100692.57;1756253;80;21039;-65
2021/11/13 05:45:48;;;;;;;8.25;7.33;;;;;;;12.79;47.59;100689.08;1772583;80;21021;-64
2021/11/13 05:48:16;;;;;;;8.35;7.47;;;;;;;12.79;47.60;100694.41;1758551;80;22169;-65
2021/11/13 05:50:43;;;;;;;9.98;8.63;;;;;;;12.79;47.59;100695.74;1766649;80;21113;-65
2021/11/13 05:53:09;;;;;;;10.00;8.55;;;;;;;12.78;47.61;100698.88;1749989;80;21049;-65
2021/11/13 05:55:36;;;;;;;9.15;8.08;;;;;;;12.78;47.61;100702.88;1768324;80;21045;-64
2021/11/13 05:58:03;;;;;;;9.23;8.00;;;;;;;12.79;47.59;100705.08;1777425;79;21140;-64
2021/11/13 06:00:30;;;;;;;8.70;7.80;;;;;;;12.79;47.61;100707.23;1757303;80;21085;-65
2021/11/13 06:02:58;;;;;;;9.45;8.38;;;;;;;12.79;47.59;100708.57;1831590;77;20966;-64
2021/11/13 06:05:25;;;;;;;9.50;8.20;;;;;;;12.80;47.61;100710.73;1837568;77;20977;-63
2021/11/13 06:07:51;;;;;;;9.28;8.30;;;;;;;12.80;47.64;100713.40;1852947;77;21017;-65
2021/11/13 06:10:18;;;;;;;9.30;7.78;;;;;;;12.81;47.63;100716.42;1844103;77;21024;-64
2021/11/13 06:12:44;;;;;;;8.30;7.50;;;;;;;12.81;47.64;100725.75;1831357;77;21102;-66
2021/11/13 06:15:11;;;;;;;9.80;8.83;;;;;;;12.81;47.63;100725.75;1804091;78;21014;-64
2021/11/13 06:17:39;;;;;;;10.10;8.68;;;;;;;12.82;47.64;100726.58;1840519;77;21024;-64
2021/11/13 06:20:07;;;;;;;8.38;7.47;;;;;;;12.82;47.65;100728.73;1846158;77;20977;-64
2021/11/13 06:22:34;;;;;;;9.80;8.63;;;;;;;12.84;47.62;100732.59;1834451;77;20978;-65
2021/11/13 06:25:03;;;;;;;10.03;8.50;;;;;;;12.84;47.63;100729.92;1843260;77;21213;-65
2021/11/13 06:27:29;;;;;;;9.58;8.58;;;;;;;12.85;47.64;100734.27;1848369;77;21017;-64
2021/11/13 06:29:56;;;;;;;9.20;8.10;;;;;;;12.86;47.65;100733.27;1847906;77;21061;-66
2021/11/13 06:32:23;;;;;;;10.25;8.43;;;;;;;12.85;47.65;100730.27;1831141;77;21039;-65
2021/11/13 06:34:49;;;;;;;10.58;9.10;;;;;;;12.87;47.69;100739.77;1784119;80;21136;-65
2021/11/13 06:37:16;;;;;;;10.60;8.40;;;;;;;12.88;47.67;100739.27;1852376;77;21140;-64
2021/11/13 06:39:42;;;;;;;8.88;7.97;;;;;;;12.87;47.67;100734.44;1838121;77;21009;-64
2021/11/13 06:42:08;;;;;;;9.88;8.33;;;;;;;12.88;47.68;100736.60;1843220;77;21319;-65
2021/11/13 06:44:35;;;;;;;9.60;8.33;;;;;;;12.90;47.69;100735.95;1843088;77;21547;-65
2021/11/13 06:47:02;;;;;;;9.70;8.30;;;;;;;12.90;47.68;100735.95;1835278;77;20994;-66
2021/11/13 06:49:28;;;;;;;9.35;8.25;;;;;;;12.93;47.70;100738.31;1831601;77;21136;-64
2021/11/13 06:51:55;;;;;;;9.23;8.28;;;;;;;12.93;47.71;100738.31;1845373;77;21029;-65
2021/11/13 06:54:21;;;;;;;9.48;8.43;;;;;;;12.95;47.70;100743.81;1850727;77;21537;-66
2021/11/13 06:56:49;;;;;;;9.45;8.45;;;;;;;12.97;47.69;100742.33;1830274;77;21538;-64
2021/11/13 06:59:15;;;;;;;9.43;8.25;;;;;;;12.97;47.71;100745.81;1845180;77;21060;-64
2021/11/13 07:01:42;;;;;;;10.63;8.25;;;;;;;12.99;47.72;100747.83;1839056;77;21738;-64
2021/11/13 07:04:08;;;;;;;10.53;8.78;;;;;;;13.00;47.71;100748.69;1836906;77;21538;-64
2021/11/13 07:06:34;;;;;;;9.80;8.75;;;;;;;13.03;47.70;100748.86;1818572;77;20991;-65
2021/11/13 07:09:01;;;;;;;10.35;8.35;;;;;;;13.04;47.70;100751.38;1827922;77;21032;-65
2021/11/13 07:11:28;;;;;;;9.83;8.70;;;;;;;13.06;47.70;100747.22;1774006;80;21049;-64
2021/11/13 07:13:54;;;;;;;9.53;8.43;;;;;;;13.08;47.68;100745.22;1779481;80;21800;-64
2021/11/13 07:16:22;;;;;;;11.15;9.00;;;;;;;13.10;47.68;100744.05;1759582;80;21625;-65
2021/11/13 07:18:49;;;;;;;10.35;8.53;;;;;;;13.11;47.67;100747.05;1831598;77;21011;-65
2021/11/13 07:21:15;;;;;;;10.03;8.85;;;;;;;13.13;47.65;100749.08;1820469;77;21030;-64
2021/11/13 07:23:43;;;;;;;8.80;7.90;;;;;;;13.15;47.63;100749.76;1833049;77;21522;-64
2021/11/13 07:26:12;;;;;;;9.60;8.60;;;;;;;13.18;47.63;100752.09;1827619;77;21141;-64
2021/11/13 07:28:39;;;;;;;10.30;9.13;;;;;;;13.21;47.61;100762.09;1821901;77;21104;-64
2021/11/13 07:31:14;;;;;;;9.73;8.73;;;;;;;13.24;47.59;100763.13;1831505;77;21053;-64
2021/11/13 07:33:40;;;;;;;9.35;8.33;;;;;;;13.25;47.59;100763.45;1829254;77;21005;-64
2021/11/13 07:36:08;;;;;;;11.10;8.98;;;;;;;13.27;47.58;100764.12;1834876;77;21105;-65
2021/11/13 07:38:35;;;;;;;9.70;8.50;;;;;;;13.29;47.54;100764.80;1834312;77;21117;-65
2021/11/13 07:41:02;;;;;;;9.18;8.23;;;;;;;13.32;47.52;100769.86;1836403;77;21541;-66
2021/11/13 07:43:29;;;;;;;10.20;9.10;;;;;;;13.33;47.51;100767.53;1772701;80;21484;-66
2021/11/13 07:45:55;;;;;;;9.40;8.08;;;;;;;13.34;47.47;100768.69;1775365;79;21553;-65
2021/11/13 07:48:21;;;;;;;10.78;9.68;;;;;;;13.37;47.65;100767.04;1777592;79;20986;-65
2021/11/13 07:50:48;;;;;;;10.10;9.03;;;;;;;13.40;47.69;100769.88;1778782;80;21136;-66
2021/11/13 07:53:15;;;;;;;10.82;9.15;;;;;;;13.44;47.70;100772.55;1770577;80;21092;-64
2021/11/13 07:55:41;;;;;;;11.20;9.83;;;;;;;13.47;47.73;100773.58;1754489;80;21054;-66
2021/11/13 07:58:08;;;;;;;11.45;9.45;;;;;;;13.51;47.73;100770.92;1760839;80;21072;-66
2021/11/13 08:00:35;;;;;;;10.50;9.10;;;;;;;13.55;47.72;100770.92;1759999;80;21015;-64
2021/11/13 08:03:02;;;;;;;11.70;9.70;;;;;;;13.60;47.69;100769.13;1757893;80;21144;-65
2021/11/13 08:05:30;;;;;;;12.07;8.95;;;;;;;13.64;47.69;100773.64;1767874;80;21022;-64
2021/11/13 08:07:57;;;;;;;10.32;9.23;;;;;;;13.69;47.65;100764.62;1761383;80;21124;-65
2021/11/13 08:10:23;;;;;;;9.85;8.83;;;;;;;13.73;47.61;100764.16;1755576;80;21466;-66
2021/11/13 08:12:51;;;;;;;12.85;9.45;;;;;;;13.78;47.58;100766.32;1759448;80;21097;-65
2021/11/13 08:15:19;;;;;;;10.68;9.48;;;;;;;13.84;47.52;100764.83;1760239;80;21208;-65
2021/11/13 08:17:47;;;;;;;23.35;13.25;;;;;;;13.90;47.45;100778.86;1766540;80;21002;-66
2021/11/13 08:20:14;;;;;;;26.30;14.60;;;;;;;14.00;58.34;100781.38;1768101;80;21033;-66
2021/11/13 08:22:41;;;;;;;25.80;14.70;;;;;;;14.38;64.79;100775.06;1763782;80;21139;-65
2021/11/13 08:25:10;;;;;;;26.50;17.20;;;;;;;14.87;66.75;100773.67;1766719;80;21050;-64
2021/11/13 08:27:38;;;;;;;24.52;20.25;;;;;;;15.33;67.19;100767.98;1826721;78;21067;-64
2021/11/13 08:30:05;;;;;;;29.30;23.45;;;;;;;15.78;66.44;100764.77;1827411;78;21064;-64
2021/11/13 08:32:33;;;;;;;31.95;24.15;;;;;;;16.21;65.19;100771.86;1820697;77;21073;-69
2021/11/13 08:35:00;;;;;;;24.70;22.05;;;;;;;16.59;63.36;100758.43;1825572;78;21076;-68
2021/11/13 08:37:28;;;;;;;26.12;22.35;;;;;;;16.82;61.48;100757.05;1821474;78;22197;-67
2021/11/13 08:39:55;;;;;;;24.05;21.33;;;;;;;16.90;60.08;100759.64;1828002;78;21139;-67
2021/11/13 08:42:22;;;;;;;24.87;22.22;;;;;;;16.92;58.92;100758.98;1816959;78;21014;-67
2021/11/13 08:44:50;;;;;;;25.30;21.35;;;;;;;16.90;57.92;100767.69;1824494;78;20990;-70
2021/11/13 08:47:20;;;;;;;23.05;20.75;;;;;;;16.87;57.13;100766.22;1825239;78;21073;-69
2021/11/13 08:49:47;;;;;;;22.67;20.17;;;;;;;16.85;56.47;100765.58;1820468;78;21050;-68
2021/11/13 08:52:17;;;;;;;23.90;21.12;;;;;;;16.84;55.92;100767.09;1778507;80;21498;-69
2021/11/13 08:54:46;;;;;;;21.30;19.20;;;;;;;16.83;55.43;100769.47;1822109;78;21025;-65
2021/11/13 08:57:12;;;;;;;25.37;21.02;;;;;;;16.82;55.04;100767.79;1826684;78;21042;-68
2021/11/13 08:59:40;;;;;;;26.57;20.50;;;;;;;16.89;56.25;100767.39;1810362;78;21497;-66
2021/11/13 09:02:13;;;;;;;25.77;20.50;;;;;;;17.12;56.44;100765.13;1819193;77;21033;-66
2021/11/13 09:04:41;;;;;;;28.15;19.92;;;;;;;17.42;56.16;100768.59;1841887;77;21075;-64
2021/11/13 09:07:08;;;;;;;26.57;19.87;;;;;;;17.73;55.73;100771.05;1836353;77;21069;-67
2021/11/13 09:09:36;;;;;;;26.62;20.40;;;;;;;18.04;55.08;100764.53;1836063;77;21578;-66
2021/11/13 09:12:08;;;;;;;34.92;24.52;;;;;;;18.31;54.35;100760.26;1832994;77;21070;-67
2021/11/13 09:16:44;;;;;;;34.67;22.37;;;;;;;18.83;53.01;100762.20;1870162;75;29033;-66
2021/11/13 09:19:11;;;;;;;32.35;22.13;;;;;;;18.99;52.42;100762.42;1851598;77;21040;-67
2021/11/13 09:21:37;;;;;;;29.50;23.02;;;;;;;19.19;51.85;100761.98;1835741;76;21086;-66
2021/11/13 09:24:05;;;;;;;30.80;23.18;;;;;;;19.37;51.42;100756.08;1843013;77;20922;-67
2021/11/13 09:26:33;;;;;;;32.05;23.40;;;;;;;19.55;51.08;100764.12;1850213;77;21056;-66
2021/11/13 09:28:59;;;;;;;28.23;22.60;;;;;;;19.71;50.74;100767.78;1829995;77;21016;-63
2021/11/13 09:31:27;;;;;;;29.48;22.65;;;;;;;19.87;50.37;100762.56;1838070;77;21000;-65
2021/11/13 09:33:55;;;;;;;31.37;23.73;;;;;;;20.01;50.20;100762.06;1837099;77;21130;-65
2021/11/13 09:36:23;;;;;;;35.78;24.47;;;;;;;20.14;50.18;100766.13;1830803;77;20965;-70
2021/11/13 09:38:49;;;;;;;26.27;20.55;;;;;;;20.27;50.07;100765.84;1845789;77;21001;-71
2021/11/13 09:41:18;;;;;;;27.90;21.27;;;;;;;20.30;49.71;100764.91;1846491;77;21030;-70
2021/11/13 09:43:44;;;;;;;27.98;21.52;;;;;;;20.24;49.42;100763.02;1824085;77;21552;-68
2021/11/13 09:46:11;;;;;;;27.95;21.07;;;;;;;20.15;49.30;100754.84;1844184;77;21114;-68
2021/11/13 09:48:39;;;;;;;26.42;20.68;;;;;;;20.08;49.26;100753.98;1853733;77;21005;-70
2021/11/13 09:51:09;;;;;;;27.77;19.70;;;;;;;20.01;49.19;100756.66;1834408;76;21055;-71
2021/11/13 09:53:36;;;;;;;23.95;20.57;;;;;;;19.95;49.14;100754.80;1827626;77;21017;-70
2021/11/13 09:56:03;;;;;;;22.95;19.23;;;;;;;19.91;49.14;100746.80;1832377;77;21010;-70
2021/11/13 09:58:29;;;;;;;25.23;19.90;;;;;;;19.87;49.10;100749.60;1841082;77;21122;-68
2021/11/13 10:00:58;;;;;;;22.62;18.73;;;;;;;19.84;49.04;100746.28;1831611;77;21037;-70
2021/11/13 10:03:24;;;;;;;20.97;18.00;;;;;;;19.82;48.98;100744.31;1831579;77;21036;-71
2021/11/13 10:05:54;;;;;;;21.33;17.82;;;;;;;19.81;48.95;100742.63;1834748;77;21566;-73
2021/11/13 10:08:22;;;;;;;22.95;17.70;;;;;;;19.82;48.92;100747.53;1831462;77;21540;-72
2021/11/13 10:11:02;;;;;;;21.45;17.32;;;;;;;19.82;48.85;100752.40;1827769;77;21017;-71
2021/11/13 10:13:34;;;;;;;22.67;17.92;;;;;;;19.83;48.72;100745.95;1832245;77;21500;-71
2021/11/13 10:16:10;;;;;;;20.65;16.45;;;;;;;19.86;48.68;100747.92;1829095;77;21572;-70
2021/11/13 10:18:43;;;;;;;21.62;16.42;;;;;;;19.88;48.57;100747.23;1835505;77;21576;-70
2021/11/13 10:21:17;;;;;;;25.23;17.48;;;;;;;19.91;48.45;100744.11;1803775;77;21501;-71
2021/11/13 10:24:01;;;;;;;18.85;15.88;;;;;;;19.94;48.31;100749.11;1829410;77;21145;-72
2021/11/13 10:26:36;;;;;;;20.27;16.60;;;;;;;19.96;48.20;100739.77;1829434;77;20981;-71
2021/11/13 10:29:13;;;;;;;18.10;16.20;;;;;;;20.00;48.11;100744.23;1849976;77;20985;-71
2021/11/13 10:31:43;;;;;;;17.73;15.70;;;;;;;20.03;48.03;100748.70;1839094;77;21068;-71
2021/11/13 10:34:16;;;;;;;20.27;14.93;;;;;;;20.07;47.92;100744.22;1832253;77;21286;-70
2021/11/13 10:36:49;;;;;;;17.98;15.30;;;;;;;20.11;47.80;100746.81;1827840;76;21933;-70
2021/11/13 10:39:25;;;;;;;18.25;15.10;;;;;;;20.15;47.70;100744.87;1834487;77;27664;-71
2021/11/13 10:42:04;;;;;;;16.07;14.28;;;;;;;20.20;47.59;100746.44;1839035;77;21009;-71
2021/11/13 10:44:37;;;;;;;15.72;13.98;;;;;;;20.25;47.51;100747.16;1837446;77;21140;-71
2021/11/13 10:47:11;;;;;;;19.15;15.35;;;;;;;20.30;47.43;100752.77;1835664;77;21048;-71
2021/11/13 10:49:37;;;;;;;21.73;15.25;;;;;;;20.35;47.33;100750.26;1829094;77;21921;-71
2021/11/13 10:52:05;;;;;;;15.88;14.25;;;;;;;20.40;47.24;100749.66;1839658;77;21528;-71
2021/11/13 10:54:32;;;;;;;16.45;14.73;;;;;;;20.45;47.12;100748.48;1828616;77;21048;-72
2021/11/13 10:57:03;;;;;;;15.98;14.28;;;;;;;20.51;47.03;100750.88;1833089;77;21036;-72
2021/11/13 10:59:38;;;;;;;17.62;15.45;;;;;;;20.55;46.95;100746.22;1834445;77;21051;-72
2021/11/13 11:02:12;;;;;;;16.45;14.70;;;;;;;20.60;46.84;100743.73;1846491;76;21056;-72
2021/11/13 11:04:41;;;;;;;15.75;14.15;;;;;;;20.66;46.73;100751.51;1832439;77;20997;-71
2021/11/13 11:07:16;;;;;;;16.32;13.98;;;;;;;20.71;46.66;100751.72;1831647;77;21088;-72
2021/11/13 11:09:47;;;;;;;15.70;13.40;;;;;;;20.77;46.55;100754.92;1852956;77;21514;-71
2021/11/13 11:12:18;;;;;;;16.75;13.93;;;;;;;20.81;46.44;100749.94;1804372;77;21057;-71
2021/11/13 11:14:49;;;;;;;14.33;12.82;;;;;;;20.84;46.31;100748.14;1839884;77;21017;-71
2021/11/13 11:17:20;;;;;;;16.02;14.07;;;;;;;20.87;46.17;100757.72;1834856;77;21005;-70
2021/11/13 11:19:51;;;;;;;15.10;13.13;;;;;;;20.87;46.05;100745.03;1837705;77;21544;-70
2021/11/13 11:22:24;;;;;;;15.10;13.48;;;;;;;20.89;45.98;100740.77;1838723;77;21041;-71
2021/11/13 11:24:56;;;;;;;14.35;12.63;;;;;;;20.88;45.91;100738.61;1836148;77;21513;-72